KTRL

Details ICAO KTRL
Name TERRELL MUNI
Region United States
Timezone America/Chicago (UTC-6.0)
Plans Departing 6
Arriving 2
Stats Elevation 474 ft / 144 m (AMSL)
Location 32.709395° -96.267477°
Runways 2
Magnetic Variation 2.968° E
Sunrise 2017-12-12 13:19:30 UTC / 2017-12-12 07:19:30 Local
Sunset 2017-12-12 23:21:12 UTC / 2017-12-12 17:21:12 Local
Advertisement - Login to hide

Runways

ID Width Length Bearing (true) Bearing (mag) Surface Threshold Offset Overrun Length
14 75 ft / 23 m 3,018 ft / 920 m 145.30° 142.33° Asphalt 0 ft / 0 m 0 ft / 0 m
17 75 ft / 23 m 5,020 ft / 1,530 m 179.89° 176.92° Asphalt 0 ft / 0 m 0 ft / 0 m
32 75 ft / 23 m 3,018 ft / 920 m 325.31° 322.34° Asphalt 0 ft / 0 m 0 ft / 0 m
35 75 ft / 23 m 5,020 ft / 1,530 m 359.89° 356.92° Asphalt 0 ft / 0 m 0 ft / 0 m

Map

Weather


0- 5 10 15 20 25 30 35+ Temperature / ° C

Clouds and Precipitation
Forecast for 2017-12-12 18:00 UTC. Updated an hour ago

Ground ~20,000 ft ~40,000 ft Winds

METAR

KTRL 121353Z AUTO 34007G16KT 10SM CLR 07/M02 A3039 RMK AO2 SLP290 T00671017

TAF

Not found

Frequencies

Recorded 119.27 MHz ASOS
Unicom 122.80 MHz CTAF/UNICOM
Warning: Do not use this data for real-world aviation or navigation. No guarantee of current accuracy is given.